sensor_id;sensor_type;location;lat;lon;timestamp;temperature;humidity
18191;DHT22;47004;51.366;12.348;2022-07-09T00:00:02;15.40;99.90
18191;DHT22;47004;51.366;12.348;2022-07-09T00:02:04;15.40;99.90
18191;DHT22;47004;51.366;12.348;2022-07-09T00:04:06;15.40;99.90
18191;DHT22;47004;51.366;12.348;2022-07-09T00:06:08;15.40;99.90
18191;DHT22;47004;51.366;12.348;2022-07-09T00:08:12;15.40;99.90
18191;DHT22;47004;51.366;12.348;2022-07-09T00:10:14;15.40;99.90
18191;DHT22;47004;51.366;12.348;2022-07-09T00:12:16;15.30;99.90
18191;DHT22;47004;51.366;12.348;2022-07-09T00:14:19;15.40;99.90
18191;DHT22;47004;51.366;12.348;2022-07-09T00:16:21;15.30;99.90
18191;DHT22;47004;51.366;12.348;2022-07-09T00:18:23;15.30;99.90
18191;DHT22;47004;51.366;12.348;2022-07-09T00:20:25;15.30;99.90
18191;DHT22;47004;51.366;12.348;2022-07-09T00:22:27;15.30;99.90
18191;DHT22;47004;51.366;12.348;2022-07-09T00:24:29;15.30;99.90
18191;DHT22;47004;51.366;12.348;2022-07-09T00:26:31;15.50;99.90
18191;DHT22;47004;51.366;12.348;2022-07-09T00:28:33;15.30;99.90
18191;DHT22;47004;51.366;12.348;2022-07-09T00:30:36;15.30;99.90
18191;DHT22;47004;51.366;12.348;2022-07-09T00:32:38;15.20;99.90
18191;DHT22;47004;51.366;12.348;2022-07-09T00:34:40;15.30;99.90
18191;DHT22;47004;51.366;12.348;2022-07-09T00:36:42;15.30;99.90
18191;DHT22;47004;51.366;12.348;2022-07-09T00:38:44;15.20;99.90
18191;DHT22;47004;51.366;12.348;2022-07-09T00:40:46;15.30;99.90
18191;DHT22;47004;51.366;12.348;2022-07-09T00:42:48;15.30;99.90
18191;DHT22;47004;51.366;12.348;2022-07-09T00:44:50;15.20;99.90
18191;DHT22;47004;51.366;12.348;2022-07-09T00:46:53;15.20;99.90
18191;DHT22;47004;51.366;12.348;2022-07-09T00:48:55;15.20;99.90
18191;DHT22;47004;51.366;12.348;2022-07-09T00:51:00;15.20;99.90
18191;DHT22;47004;51.366;12.348;2022-07-09T00:53:02;15.20;99.90
18191;DHT22;47004;51.366;12.348;2022-07-09T00:55:05;15.30;99.90
18191;DHT22;47004;51.366;12.348;2022-07-09T00:57:09;15.30;99.90
18191;DHT22;47004;51.366;12.348;2022-07-09T00:59:11;15.20;99.90
18191;DHT22;47004;51.366;12.348;2022-07-09T01:01:13;15.20;99.90
18191;DHT22;47004;51.366;12.348;2022-07-09T01:03:17;15.20;99.90
18191;DHT22;47004;51.366;12.348;2022-07-09T01:05:19;15.20;99.90
18191;DHT22;47004;51.366;12.348;2022-07-09T01:07:21;15.20;99.90
18191;DHT22;47004;51.366;12.348;2022-07-09T01:09:22;15.30;99.90
18191;DHT22;47004;51.366;12.348;2022-07-09T01:11:24;15.20;99.90
18191;DHT22;47004;51.366;12.348;2022-07-09T01:13:26;15.20;99.90
18191;DHT22;47004;51.366;12.348;2022-07-09T01:15:28;15.20;99.90
18191;DHT22;47004;51.366;12.348;2022-07-09T01:17:37;15.20;99.90
18191;DHT22;47004;51.366;12.348;2022-07-09T01:19:40;15.20;99.90
18191;DHT22;47004;51.366;12.348;2022-07-09T01:21:43;15.20;99.90
18191;DHT22;47004;51.366;12.348;2022-07-09T01:23:45;15.20;99.90
18191;DHT22;47004;51.366;12.348;2022-07-09T01:25:47;15.20;99.90
18191;DHT22;47004;51.366;12.348;2022-07-09T01:27:49;15.20;99.90
18191;DHT22;47004;51.366;12.348;2022-07-09T01:29:51;15.20;99.90
18191;DHT22;47004;51.366;12.348;2022-07-09T01:31:53;15.20;99.90
18191;DHT22;47004;51.366;12.348;2022-07-09T01:33:55;15.20;99.90
18191;DHT22;47004;51.366;12.348;2022-07-09T01:35:56;15.20;99.90
18191;DHT22;47004;51.366;12.348;2022-07-09T01:38:00;15.20;99.90
18191;DHT22;47004;51.366;12.348;2022-07-09T01:40:02;15.20;99.90
18191;DHT22;47004;51.366;12.348;2022-07-09T01:42:04;15.20;99.90
18191;DHT22;47004;51.366;12.348;2022-07-09T01:44:06;15.20;99.90
18191;DHT22;47004;51.366;12.348;2022-07-09T01:46:08;15.20;99.90
18191;DHT22;47004;51.366;12.348;2022-07-09T01:48:10;15.20;99.90
18191;DHT22;47004;51.366;12.348;2022-07-09T01:50:12;15.20;99.90
18191;DHT22;47004;51.366;12.348;2022-07-09T01:52:14;15.20;99.90
18191;DHT22;47004;51.366;12.348;2022-07-09T01:54:17;15.20;99.90
18191;DHT22;47004;51.366;12.348;2022-07-09T01:56:19;15.20;99.90
18191;DHT22;47004;51.366;12.348;2022-07-09T01:58:21;15.20;99.90
18191;DHT22;47004;51.366;12.348;2022-07-09T02:00:23;15.20;99.90
18191;DHT22;47004;51.366;12.348;2022-07-09T02:02:25;15.20;99.90
18191;DHT22;47004;51.366;12.348;2022-07-09T02:04:26;15.20;99.90
18191;DHT22;47004;51.366;12.348;2022-07-09T02:06:28;15.20;99.90
18191;DHT22;47004;51.366;12.348;2022-07-09T02:08:31;15.20;99.90
18191;DHT22;47004;51.366;12.348;2022-07-09T02:10:34;15.20;99.90
18191;DHT22;47004;51.366;12.348;2022-07-09T02:12:36;15.10;99.90
18191;DHT22;47004;51.366;12.348;2022-07-09T02:14:38;15.10;99.90
18191;DHT22;47004;51.366;12.348;2022-07-09T02:16:40;15.10;99.90
18191;DHT22;47004;51.366;12.348;2022-07-09T02:18:42;15.10;99.90
18191;DHT22;47004;51.366;12.348;2022-07-09T02:20:45;15.10;99.90
18191;DHT22;47004;51.366;12.348;2022-07-09T02:22:46;15.10;99.90
18191;DHT22;47004;51.366;12.348;2022-07-09T02:24:48;15.10;99.90
18191;DHT22;47004;51.366;12.348;2022-07-09T02:26:51;15.10;99.90
18191;DHT22;47004;51.366;12.348;2022-07-09T02:28:53;15.00;99.90
18191;DHT22;47004;51.366;12.348;2022-07-09T02:30:55;15.10;99.90
18191;DHT22;47004;51.366;12.348;2022-07-09T02:32:58;15.10;99.90
18191;DHT22;47004;51.366;12.348;2022-07-09T02:35:00;15.10;99.90
18191;DHT22;47004;51.366;12.348;2022-07-09T02:37:02;15.10;99.90
18191;DHT22;47004;51.366;12.348;2022-07-09T02:39:04;15.00;99.90
18191;DHT22;47004;51.366;12.348;2022-07-09T02:41:06;15.00;99.90
18191;DHT22;47004;51.366;12.348;2022-07-09T02:43:09;15.00;99.90
18191;DHT22;47004;51.366;12.348;2022-07-09T02:45:11;14.90;99.90
18191;DHT22;47004;51.366;12.348;2022-07-09T04:13:38;14.80;99.90
18191;DHT22;47004;51.366;12.348;2022-07-09T04:15:40;14.80;99.90
18191;DHT22;47004;51.366;12.348;2022-07-09T04:17:46;14.70;99.90
18191;DHT22;47004;51.366;12.348;2022-07-09T04:19:48;14.70;99.90
18191;DHT22;47004;51.366;12.348;2022-07-09T04:21:50;14.70;99.90
18191;DHT22;47004;51.366;12.348;2022-07-09T04:23:52;14.80;99.90
18191;DHT22;47004;51.366;12.348;2022-07-09T04:25:54;14.80;99.90
18191;DHT22;47004;51.366;12.348;2022-07-09T04:27:56;14.80;99.90
18191;DHT22;47004;51.366;12.348;2022-07-09T04:30:01;14.90;99.90
18191;DHT22;47004;51.366;12.348;2022-07-09T04:32:03;14.90;99.90
18191;DHT22;47004;51.366;12.348;2022-07-09T04:34:05;14.90;99.90
18191;DHT22;47004;51.366;12.348;2022-07-09T04:36:10;15.00;99.90
18191;DHT22;47004;51.366;12.348;2022-07-09T04:38:12;15.00;99.90
18191;DHT22;47004;51.366;12.348;2022-07-09T04:40:14;15.10;99.90
18191;DHT22;47004;51.366;12.348;2022-07-09T04:42:16;15.20;99.90
18191;DHT22;47004;51.366;12.348;2022-07-09T04:44:20;15.20;99.90
18191;DHT22;47004;51.366;12.348;2022-07-09T04:46:23;15.20;99.90
18191;DHT22;47004;51.366;12.348;2022-07-09T04:48:25;15.30;99.90
18191;DHT22;47004;51.366;12.348;2022-07-09T04:50:27;15.30;99.90
18191;DHT22;47004;51.366;12.348;2022-07-09T04:52:29;15.40;99.90
18191;DHT22;47004;51.366;12.348;2022-07-09T04:54:31;15.40;99.90
18191;DHT22;47004;51.366;12.348;2022-07-09T04:56:33;15.40;99.90
18191;DHT22;47004;51.366;12.348;2022-07-09T04:58:35;15.50;99.90
18191;DHT22;47004;51.366;12.348;2022-07-09T05:00:38;15.50;99.90
18191;DHT22;47004;51.366;12.348;2022-07-09T05:02:41;15.60;99.90
18191;DHT22;47004;51.366;12.348;2022-07-09T05:04:46;15.60;99.90
18191;DHT22;47004;51.366;12.348;2022-07-09T05:06:48;15.60;99.90
18191;DHT22;47004;51.366;12.348;2022-07-09T05:08:50;15.70;99.90
18191;DHT22;47004;51.366;12.348;2022-07-09T05:10:52;15.70;99.90
18191;DHT22;47004;51.366;12.348;2022-07-09T05:12:53;15.70;99.90
18191;DHT22;47004;51.366;12.348;2022-07-09T05:14:56;15.80;99.90
18191;DHT22;47004;51.366;12.348;2022-07-09T05:16:58;15.80;99.90
18191;DHT22;47004;51.366;12.348;2022-07-09T05:19:01;15.90;99.90
18191;DHT22;47004;51.366;12.348;2022-07-09T05:21:03;15.90;99.90
18191;DHT22;47004;51.366;12.348;2022-07-09T05:23:05;15.90;99.90
18191;DHT22;47004;51.366;12.348;2022-07-09T05:25:07;15.90;99.90
18191;DHT22;47004;51.366;12.348;2022-07-09T05:27:11;16.00;99.90
18191;DHT22;47004;51.366;12.348;2022-07-09T05:29:13;16.00;99.90
18191;DHT22;47004;51.366;12.348;2022-07-09T05:31:14;16.10;99.90
18191;DHT22;47004;51.366;12.348;2022-07-09T05:33:16;16.00;99.90
18191;DHT22;47004;51.366;12.348;2022-07-09T05:35:21;16.10;99.90
18191;DHT22;47004;51.366;12.348;2022-07-09T05:37:23;16.20;99.90
18191;DHT22;47004;51.366;12.348;2022-07-09T05:39:25;16.20;99.90
18191;DHT22;47004;51.366;12.348;2022-07-09T05:41:27;16.30;99.90
18191;DHT22;47004;51.366;12.348;2022-07-09T05:43:29;16.30;99.90
18191;DHT22;47004;51.366;12.348;2022-07-09T05:45:31;16.30;99.90
18191;DHT22;47004;51.366;12.348;2022-07-09T05:47:33;16.40;99.90
18191;DHT22;47004;51.366;12.348;2022-07-09T05:49:35;16.40;99.90
18191;DHT22;47004;51.366;12.348;2022-07-09T05:51:38;16.40;99.90
18191;DHT22;47004;51.366;12.348;2022-07-09T05:53:40;16.50;99.90
18191;DHT22;47004;51.366;12.348;2022-07-09T05:55:42;16.50;99.90
18191;DHT22;47004;51.366;12.348;2022-07-09T05:57:45;16.40;99.90
18191;DHT22;47004;51.366;12.348;2022-07-09T05:59:47;16.40;99.90
18191;DHT22;47004;51.366;12.348;2022-07-09T06:01:49;16.40;99.90
18191;DHT22;47004;51.366;12.348;2022-07-09T06:03:51;16.50;99.90
18191;DHT22;47004;51.366;12.348;2022-07-09T06:05:53;16.50;99.90
18191;DHT22;47004;51.366;12.348;2022-07-09T06:07:56;16.50;99.90
18191;DHT22;47004;51.366;12.348;2022-07-09T06:09:58;16.50;99.90
18191;DHT22;47004;51.366;12.348;2022-07-09T06:12:00;16.50;99.90
18191;DHT22;47004;51.366;12.348;2022-07-09T06:14:02;16.50;99.90
18191;DHT22;47004;51.366;12.348;2022-07-09T06:16:05;16.60;99.90
18191;DHT22;47004;51.366;12.348;2022-07-09T06:18:07;16.60;99.90
18191;DHT22;47004;51.366;12.348;2022-07-09T06:20:09;16.60;99.90
18191;DHT22;47004;51.366;12.348;2022-07-09T06:22:11;16.60;99.90
18191;DHT22;47004;51.366;12.348;2022-07-09T06:24:14;16.70;99.90
18191;DHT22;47004;51.366;12.348;2022-07-09T06:26:16;16.60;99.90
18191;DHT22;47004;51.366;12.348;2022-07-09T06:28:18;16.70;99.90
18191;DHT22;47004;51.366;12.348;2022-07-09T06:30:20;16.70;99.90
18191;DHT22;47004;51.366;12.348;2022-07-09T06:32:22;16.70;99.90
18191;DHT22;47004;51.366;12.348;2022-07-09T06:34:24;16.70;99.90
18191;DHT22;47004;51.366;12.348;2022-07-09T06:36:26;16.70;99.90
18191;DHT22;47004;51.366;12.348;2022-07-09T06:38:28;16.70;99.90
18191;DHT22;47004;51.366;12.348;2022-07-09T06:40:32;16.70;99.90
18191;DHT22;47004;51.366;12.348;2022-07-09T06:42:34;16.80;99.90
18191;DHT22;47004;51.366;12.348;2022-07-09T06:44:36;16.70;99.90
18191;DHT22;47004;51.366;12.348;2022-07-09T06:46:38;16.80;99.90
18191;DHT22;47004;51.366;12.348;2022-07-09T06:48:40;16.80;99.90
18191;DHT22;47004;51.366;12.348;2022-07-09T06:50:42;16.90;99.90
18191;DHT22;47004;51.366;12.348;2022-07-09T06:52:44;16.90;99.90
18191;DHT22;47004;51.366;12.348;2022-07-09T06:54:46;17.00;99.90
18191;DHT22;47004;51.366;12.348;2022-07-09T06:56:50;17.00;99.90
18191;DHT22;47004;51.366;12.348;2022-07-09T06:58:52;17.00;99.90
18191;DHT22;47004;51.366;12.348;2022-07-09T07:00:54;17.10;99.90
18191;DHT22;47004;51.366;12.348;2022-07-09T07:02:55;17.10;99.90
18191;DHT22;47004;51.366;12.348;2022-07-09T07:04:59;17.10;99.90
18191;DHT22;47004;51.366;12.348;2022-07-09T07:07:01;17.20;99.90
18191;DHT22;47004;51.366;12.348;2022-07-09T07:09:07;17.20;99.90
18191;DHT22;47004;51.366;12.348;2022-07-09T07:11:09;17.20;99.90
18191;DHT22;47004;51.366;12.348;2022-07-09T07:13:12;17.30;99.90
18191;DHT22;47004;51.366;12.348;2022-07-09T07:15:14;17.40;99.90
18191;DHT22;47004;51.366;12.348;2022-07-09T07:17:16;17.40;99.90
18191;DHT22;47004;51.366;12.348;2022-07-09T07:19:18;17.40;99.90
18191;DHT22;47004;51.366;12.348;2022-07-09T07:21:21;17.50;99.90
18191;DHT22;47004;51.366;12.348;2022-07-09T07:23:23;17.50;99.90
18191;DHT22;47004;51.366;12.348;2022-07-09T07:25:25;17.60;99.90
18191;DHT22;47004;51.366;12.348;2022-07-09T07:27:27;17.60;99.90
18191;DHT22;47004;51.366;12.348;2022-07-09T07:29:30;17.70;99.90
18191;DHT22;47004;51.366;12.348;2022-07-09T07:31:32;17.70;99.90
18191;DHT22;47004;51.366;12.348;2022-07-09T07:33:34;17.80;99.90
18191;DHT22;47004;51.366;12.348;2022-07-09T07:35:36;17.90;99.90
18191;DHT22;47004;51.366;12.348;2022-07-09T07:37:38;17.80;99.90
18191;DHT22;47004;51.366;12.348;2022-07-09T07:39:40;17.80;99.90
18191;DHT22;47004;51.366;12.348;2022-07-09T07:41:42;17.90;99.90
18191;DHT22;47004;51.366;12.348;2022-07-09T07:43:44;17.90;99.90
18191;DHT22;47004;51.366;12.348;2022-07-09T07:45:49;17.90;99.90
18191;DHT22;47004;51.366;12.348;2022-07-09T07:47:51;17.90;99.90
18191;DHT22;47004;51.366;12.348;2022-07-09T07:49:54;17.80;99.90
18191;DHT22;47004;51.366;12.348;2022-07-09T07:51:56;17.80;99.90
18191;DHT22;47004;51.366;12.348;2022-07-09T07:53:58;17.80;99.90
18191;DHT22;47004;51.366;12.348;2022-07-09T07:56:00;17.90;99.90
18191;DHT22;47004;51.366;12.348;2022-07-09T07:58:03;17.90;99.90
18191;DHT22;47004;51.366;12.348;2022-07-09T08:00:06;17.90;99.90
18191;DHT22;47004;51.366;12.348;2022-07-09T08:02:09;17.90;99.90
18191;DHT22;47004;51.366;12.348;2022-07-09T08:04:11;18.00;99.90
18191;DHT22;47004;51.366;12.348;2022-07-09T08:06:13;18.00;99.90
18191;DHT22;47004;51.366;12.348;2022-07-09T08:08:15;18.00;99.90
18191;DHT22;47004;51.366;12.348;2022-07-09T08:10:19;18.10;99.90
18191;DHT22;47004;51.366;12.348;2022-07-09T08:12:21;18.10;99.90
18191;DHT22;47004;51.366;12.348;2022-07-09T08:14:23;18.10;99.90
18191;DHT22;47004;51.366;12.348;2022-07-09T08:16:24;18.20;99.90
18191;DHT22;47004;51.366;12.348;2022-07-09T08:18:28;18.20;99.90
18191;DHT22;47004;51.366;12.348;2022-07-09T08:20:30;18.40;99.90
18191;DHT22;47004;51.366;12.348;2022-07-09T08:22:31;18.40;99.90
18191;DHT22;47004;51.366;12.348;2022-07-09T08:24:33;18.50;99.90
18191;DHT22;47004;51.366;12.348;2022-07-09T08:26:35;18.60;99.90
18191;DHT22;47004;51.366;12.348;2022-07-09T08:28:37;18.60;99.90
18191;DHT22;47004;51.366;12.348;2022-07-09T08:30:39;18.60;99.90
18191;DHT22;47004;51.366;12.348;2022-07-09T08:32:41;18.70;99.90
18191;DHT22;47004;51.366;12.348;2022-07-09T08:34:44;18.70;99.90
18191;DHT22;47004;51.366;12.348;2022-07-09T08:36:46;18.70;99.90
18191;DHT22;47004;51.366;12.348;2022-07-09T08:38:48;18.70;99.90
18191;DHT22;47004;51.366;12.348;2022-07-09T08:40:50;18.70;99.90
18191;DHT22;47004;51.366;12.348;2022-07-09T08:42:53;18.80;99.90
18191;DHT22;47004;51.366;12.348;2022-07-09T08:44:55;18.80;99.90
18191;DHT22;47004;51.366;12.348;2022-07-09T08:47:00;18.80;99.90
18191;DHT22;47004;51.366;12.348;2022-07-09T08:49:03;18.90;99.90
18191;DHT22;47004;51.366;12.348;2022-07-09T08:51:06;18.90;99.90
18191;DHT22;47004;51.366;12.348;2022-07-09T08:53:09;18.90;99.90
18191;DHT22;47004;51.366;12.348;2022-07-09T08:55:11;18.90;99.90
18191;DHT22;47004;51.366;12.348;2022-07-09T08:57:13;18.80;99.90
18191;DHT22;47004;51.366;12.348;2022-07-09T08:59:15;18.80;99.90
18191;DHT22;47004;51.366;12.348;2022-07-09T09:01:17;18.90;99.90
18191;DHT22;47004;51.366;12.348;2022-07-09T09:03:19;18.90;99.90
18191;DHT22;47004;51.366;12.348;2022-07-09T09:05:21;18.90;99.90
18191;DHT22;47004;51.366;12.348;2022-07-09T09:07:24;18.90;99.90
18191;DHT22;47004;51.366;12.348;2022-07-09T09:09:35;19.00;99.90
18191;DHT22;47004;51.366;12.348;2022-07-09T09:11:37;19.10;99.90
18191;DHT22;47004;51.366;12.348;2022-07-09T09:13:41;19.10;99.90
18191;DHT22;47004;51.366;12.348;2022-07-09T09:15:43;19.10;99.90
18191;DHT22;47004;51.366;12.348;2022-07-09T09:17:45;19.10;99.90
18191;DHT22;47004;51.366;12.348;2022-07-09T09:19:47;19.20;99.90
18191;DHT22;47004;51.366;12.348;2022-07-09T09:21:51;19.20;99.90
18191;DHT22;47004;51.366;12.348;2022-07-09T09:23:56;19.30;99.90
18191;DHT22;47004;51.366;12.348;2022-07-09T09:26:08;19.30;99.90
18191;DHT22;47004;51.366;12.348;2022-07-09T09:28:11;19.30;99.90
18191;DHT22;47004;51.366;12.348;2022-07-09T09:30:15;19.40;99.90
18191;DHT22;47004;51.366;12.348;2022-07-09T09:32:19;19.40;99.90
18191;DHT22;47004;51.366;12.348;2022-07-09T09:34:23;19.50;99.90
18191;DHT22;47004;51.366;12.348;2022-07-09T09:36:30;19.50;99.90
18191;DHT22;47004;51.366;12.348;2022-07-09T09:38:32;19.60;99.90
18191;DHT22;47004;51.366;12.348;2022-07-09T09:40:44;19.60;99.90
18191;DHT22;47004;51.366;12.348;2022-07-09T09:42:46;19.70;99.90
18191;DHT22;47004;51.366;12.348;2022-07-09T09:44:50;19.80;99.90
18191;DHT22;47004;51.366;12.348;2022-07-09T09:46:53;19.90;99.90
18191;DHT22;47004;51.366;12.348;2022-07-09T09:48:56;19.90;99.90
18191;DHT22;47004;51.366;12.348;2022-07-09T09:51:00;19.90;99.90
18191;DHT22;47004;51.366;12.348;2022-07-09T09:53:03;20.00;99.90
18191;DHT22;47004;51.366;12.348;2022-07-09T09:55:07;20.10;99.90
18191;DHT22;47004;51.366;12.348;2022-07-09T09:57:11;20.20;99.90
18191;DHT22;47004;51.366;12.348;2022-07-09T09:59:14;20.30;99.90
18191;DHT22;47004;51.366;12.348;2022-07-09T10:01:16;20.40;99.90
18191;DHT22;47004;51.366;12.348;2022-07-09T10:03:19;20.50;99.90
18191;DHT22;47004;51.366;12.348;2022-07-09T10:05:22;20.50;99.90
18191;DHT22;47004;51.366;12.348;2022-07-09T10:07:24;20.60;99.90
18191;DHT22;47004;51.366;12.348;2022-07-09T10:09:26;20.60;99.90
18191;DHT22;47004;51.366;12.348;2022-07-09T10:11:38;20.70;99.90
18191;DHT22;47004;51.366;12.348;2022-07-09T10:13:51;20.80;99.90
18191;DHT22;47004;51.366;12.348;2022-07-09T10:15:54;20.90;99.90
18191;DHT22;47004;51.366;12.348;2022-07-09T10:17:56;20.90;99.90
18191;DHT22;47004;51.366;12.348;2022-07-09T10:20:05;20.90;99.90
18191;DHT22;47004;51.366;12.348;2022-07-09T10:22:08;20.90;99.90
18191;DHT22;47004;51.366;12.348;2022-07-09T10:24:10;20.90;99.90
18191;DHT22;47004;51.366;12.348;2022-07-09T10:26:13;20.90;99.90
18191;DHT22;47004;51.366;12.348;2022-07-09T10:28:15;21.00;99.90
18191;DHT22;47004;51.366;12.348;2022-07-09T10:30:33;21.10;99.90
18191;DHT22;47004;51.366;12.348;2022-07-09T10:32:36;21.20;99.90
18191;DHT22;47004;51.366;12.348;2022-07-09T10:34:55;21.30;99.90
18191;DHT22;47004;51.366;12.348;2022-07-09T10:36:58;21.40;99.90
18191;DHT22;47004;51.366;12.348;2022-07-09T10:39:00;21.40;99.90
18191;DHT22;47004;51.366;12.348;2022-07-09T10:41:04;21.50;99.90
18191;DHT22;47004;51.366;12.348;2022-07-09T10:43:06;21.40;99.90
18191;DHT22;47004;51.366;12.348;2022-07-09T10:45:22;21.40;99.90
18191;DHT22;47004;51.366;12.348;2022-07-09T10:47:38;21.40;99.90
18191;DHT22;47004;51.366;12.348;2022-07-09T10:49:43;21.30;99.90
18191;DHT22;47004;51.366;12.348;2022-07-09T10:51:46;21.20;99.90
18191;DHT22;47004;51.366;12.348;2022-07-09T10:53:50;21.20;99.90
18191;DHT22;47004;51.366;12.348;2022-07-09T10:55:52;21.20;99.90
18191;DHT22;47004;51.366;12.348;2022-07-09T10:57:54;21.20;99.90
18191;DHT22;47004;51.366;12.348;2022-07-09T10:59:57;21.20;99.90
18191;DHT22;47004;51.366;12.348;2022-07-09T11:02:01;21.30;99.90
18191;DHT22;47004;51.366;12.348;2022-07-09T11:04:04;21.40;99.90
18191;DHT22;47004;51.366;12.348;2022-07-09T11:06:08;21.40;99.90
18191;DHT22;47004;51.366;12.348;2022-07-09T11:08:10;21.50;99.90
18191;DHT22;47004;51.366;12.348;2022-07-09T11:10:19;21.60;99.90
18191;DHT22;47004;51.366;12.348;2022-07-09T11:12:22;21.70;99.90
18191;DHT22;47004;51.366;12.348;2022-07-09T11:14:27;21.80;99.90
18191;DHT22;47004;51.366;12.348;2022-07-09T11:16:32;21.80;99.90
18191;DHT22;47004;51.366;12.348;2022-07-09T11:18:34;21.80;99.90
18191;DHT22;47004;51.366;12.348;2022-07-09T11:20:40;21.70;99.90
18191;DHT22;47004;51.366;12.348;2022-07-09T11:22:47;21.70;99.90
18191;DHT22;47004;51.366;12.348;2022-07-09T11:24:55;21.80;99.90
18191;DHT22;47004;51.366;12.348;2022-07-09T11:27:01;21.80;99.90
18191;DHT22;47004;51.366;12.348;2022-07-09T11:29:06;21.70;99.90
18191;DHT22;47004;51.366;12.348;2022-07-09T11:31:12;21.70;99.90
18191;DHT22;47004;51.366;12.348;2022-07-09T11:33:14;21.70;99.90
18191;DHT22;47004;51.366;12.348;2022-07-09T11:35:27;21.60;99.90
18191;DHT22;47004;51.366;12.348;2022-07-09T11:37:31;21.60;99.90
18191;DHT22;47004;51.366;12.348;2022-07-09T11:39:33;21.50;99.90
18191;DHT22;47004;51.366;12.348;2022-07-09T11:41:42;21.50;99.90
18191;DHT22;47004;51.366;12.348;2022-07-09T11:43:55;21.40;99.90
18191;DHT22;47004;51.366;12.348;2022-07-09T11:45:57;21.40;99.90
18191;DHT22;47004;51.366;12.348;2022-07-09T11:48:03;21.30;99.90
18191;DHT22;47004;51.366;12.348;2022-07-09T11:50:07;21.30;99.90
18191;DHT22;47004;51.366;12.348;2022-07-09T11:52:20;21.30;99.90
18191;DHT22;47004;51.366;12.348;2022-07-09T11:54:27;21.20;99.90
18191;DHT22;47004;51.366;12.348;2022-07-09T11:56:40;21.10;99.90
18191;DHT22;47004;51.366;12.348;2022-07-09T11:58:49;21.00;99.90
18191;DHT22;47004;51.366;12.348;2022-07-09T12:00:54;21.00;99.90
18191;DHT22;47004;51.366;12.348;2022-07-09T12:03:00;20.90;99.90
18191;DHT22;47004;51.366;12.348;2022-07-09T12:05:04;20.90;99.90
18191;DHT22;47004;51.366;12.348;2022-07-09T12:07:10;20.90;99.90
18191;DHT22;47004;51.366;12.348;2022-07-09T12:09:14;20.90;99.90
18191;DHT22;47004;51.366;12.348;2022-07-09T12:11:27;20.90;99.90
18191;DHT22;47004;51.366;12.348;2022-07-09T12:13:31;20.90;99.90
18191;DHT22;47004;51.366;12.348;2022-07-09T12:15:33;20.90;99.90
18191;DHT22;47004;51.366;12.348;2022-07-09T12:17:35;20.90;99.90
18191;DHT22;47004;51.366;12.348;2022-07-09T12:19:40;20.80;99.90
18191;DHT22;47004;51.366;12.348;2022-07-09T12:21:44;20.90;99.90
18191;DHT22;47004;51.366;12.348;2022-07-09T12:23:47;20.90;99.90
18191;DHT22;47004;51.366;12.348;2022-07-09T12:25:48;21.00;99.90
18191;DHT22;47004;51.366;12.348;2022-07-09T12:27:54;21.10;99.90
18191;DHT22;47004;51.366;12.348;2022-07-09T12:29:59;21.20;99.90
18191;DHT22;47004;51.366;12.348;2022-07-09T12:32:02;21.40;99.90
18191;DHT22;47004;51.366;12.348;2022-07-09T12:34:05;21.50;99.90
18191;DHT22;47004;51.366;12.348;2022-07-09T12:36:07;21.60;99.90
18191;DHT22;47004;51.366;12.348;2022-07-09T12:38:09;21.70;98.00
18191;DHT22;47004;51.366;12.348;2022-07-09T12:40:13;21.70;98.80
18191;DHT22;47004;51.366;12.348;2022-07-09T12:42:15;21.90;99.10
18191;DHT22;47004;51.366;12.348;2022-07-09T12:44:20;21.90;96.30
18191;DHT22;47004;51.366;12.348;2022-07-09T12:46:22;21.90;96.40
18191;DHT22;47004;51.366;12.348;2022-07-09T12:48:24;22.00;96.10
18191;DHT22;47004;51.366;12.348;2022-07-09T12:50:26;21.90;93.80
18191;DHT22;47004;51.366;12.348;2022-07-09T12:52:28;21.90;94.70
18191;DHT22;47004;51.366;12.348;2022-07-09T12:54:32;21.90;96.10
18191;DHT22;47004;51.366;12.348;2022-07-09T12:56:36;21.90;96.40
18191;DHT22;47004;51.366;12.348;2022-07-09T12:58:38;21.90;95.60
18191;DHT22;47004;51.366;12.348;2022-07-09T13:00:42;21.80;96.30
18191;DHT22;47004;51.366;12.348;2022-07-09T13:02:46;21.80;97.30
18191;DHT22;47004;51.366;12.348;2022-07-09T13:04:48;21.70;97.70
18191;DHT22;47004;51.366;12.348;2022-07-09T13:06:56;21.70;99.50
18191;DHT22;47004;51.366;12.348;2022-07-09T13:09:00;21.60;99.90
18191;DHT22;47004;51.366;12.348;2022-07-09T13:11:02;21.70;99.90
18191;DHT22;47004;51.366;12.348;2022-07-09T13:13:04;21.60;99.90
18191;DHT22;47004;51.366;12.348;2022-07-09T13:15:10;21.50;99.90
18191;DHT22;47004;51.366;12.348;2022-07-09T13:17:13;21.50;99.90
18191;DHT22;47004;51.366;12.348;2022-07-09T13:19:20;21.40;99.90
18191;DHT22;47004;51.366;12.348;2022-07-09T13:21:22;21.10;99.90
18191;DHT22;47004;51.366;12.348;2022-07-09T13:23:24;20.50;99.90
18191;DHT22;47004;51.366;12.348;2022-07-09T13:25:27;19.60;99.90
18191;DHT22;47004;51.366;12.348;2022-07-09T13:27:35;18.90;99.90
18191;DHT22;47004;51.366;12.348;2022-07-09T13:29:37;18.40;99.90
18191;DHT22;47004;51.366;12.348;2022-07-09T13:31:40;18.10;99.90
18191;DHT22;47004;51.366;12.348;2022-07-09T13:33:46;17.90;99.90
18191;DHT22;47004;51.366;12.348;2022-07-09T13:35:48;17.70;99.90
18191;DHT22;47004;51.366;12.348;2022-07-09T13:37:50;17.60;99.90
18191;DHT22;47004;51.366;12.348;2022-07-09T13:39:54;17.60;99.90
18191;DHT22;47004;51.366;12.348;2022-07-09T13:41:59;17.40;99.90
18191;DHT22;47004;51.366;12.348;2022-07-09T13:44:06;17.30;99.90
18191;DHT22;47004;51.366;12.348;2022-07-09T13:46:13;17.30;99.90
18191;DHT22;47004;51.366;12.348;2022-07-09T13:48:15;17.40;99.90
18191;DHT22;47004;51.366;12.348;2022-07-09T13:50:20;17.50;99.90
18191;DHT22;47004;51.366;12.348;2022-07-09T13:52:22;17.60;99.90
18191;DHT22;47004;51.366;12.348;2022-07-09T13:54:26;17.60;99.90
18191;DHT22;47004;51.366;12.348;2022-07-09T13:56:28;17.70;99.90
18191;DHT22;47004;51.366;12.348;2022-07-09T13:58:33;17.70;99.90
18191;DHT22;47004;51.366;12.348;2022-07-09T14:00:36;17.80;99.90
18191;DHT22;47004;51.366;12.348;2022-07-09T14:02:39;17.90;99.90
18191;DHT22;47004;51.366;12.348;2022-07-09T14:04:41;18.10;99.90
18191;DHT22;47004;51.366;12.348;2022-07-09T14:06:44;18.30;99.90
18191;DHT22;47004;51.366;12.348;2022-07-09T14:08:46;18.50;99.90
18191;DHT22;47004;51.366;12.348;2022-07-09T14:10:51;18.60;99.90